Terminal Aerodrome Forecast
Issued by NWS

Home | Current Version | Previous Version | Text Only | Print | Product List | Glossary On
Versions: 1 2 3 4 5 6 7 8 9 10 11 12 13 14 15 16 17 18 19 20
000
FTUS41 KPHI 010500
TAFMIV
TAF
KMIV 010525Z 0106/0206 VRB03KT P6SM VCSH SCT020 BKN050
      TEMPO 0108/0112 3SM BR BKN020
     FM011400 24006KT P6SM SCT025 BKN060
     FM011800 22008KT 5SM -SHRA BKN040
     FM020000 VRB03KT P6SM SCT040 BKN100
     FM020300 VRB03KT 6SM BR FEW050 SCT100=

USA.gov is the U.S. government's official web portal to all federal, state and local government web resources and services.